sensor_id;sensor_type;location;lat;lon;timestamp;P1;durP1;ratioP1;P2;durP2;ratioP2
2544;SDS011;36212;48.838;9.142;2024-03-25T00:00:44;5.20;;;4.53;;
2544;SDS011;36212;48.838;9.142;2024-03-25T00:03:15;4.57;;;3.85;;
2544;SDS011;36212;48.838;9.142;2024-03-25T00:05:47;5.05;;;3.50;;
2544;SDS011;36212;48.838;9.142;2024-03-25T00:08:19;6.22;;;4.05;;
2544;SDS011;36212;48.838;9.142;2024-03-25T00:10:50;4.85;;;4.00;;
2544;SDS011;36212;48.838;9.142;2024-03-25T00:13:22;3.90;;;3.70;;
2544;SDS011;36212;48.838;9.142;2024-03-25T00:15:53;4.72;;;4.20;;
2544;SDS011;36212;48.838;9.142;2024-03-25T00:18:24;6.70;;;4.00;;
2544;SDS011;36212;48.838;9.142;2024-03-25T00:20:56;5.28;;;3.95;;
2544;SDS011;36212;48.838;9.142;2024-03-25T00:23:28;3.80;;;3.60;;
2544;SDS011;36212;48.838;9.142;2024-03-25T00:26:00;6.78;;;3.88;;
2544;SDS011;36212;48.838;9.142;2024-03-25T00:28:32;4.32;;;3.90;;
2544;SDS011;36212;48.838;9.142;2024-03-25T00:31:03;3.83;;;3.40;;
2544;SDS011;36212;48.838;9.142;2024-03-25T00:33:35;4.60;;;4.20;;
2544;SDS011;36212;48.838;9.142;2024-03-25T00:36:06;4.22;;;3.78;;
2544;SDS011;36212;48.838;9.142;2024-03-25T00:38:38;4.90;;;4.20;;
2544;SDS011;36212;48.838;9.142;2024-03-25T00:41:10;5.32;;;3.47;;
2544;SDS011;36212;48.838;9.142;2024-03-25T00:43:42;4.03;;;3.60;;
2544;SDS011;36212;48.838;9.142;2024-03-25T00:46:14;7.70;;;3.85;;
2544;SDS011;36212;48.838;9.142;2024-03-25T00:48:46;4.95;;;4.38;;
2544;SDS011;36212;48.838;9.142;2024-03-25T00:51:17;9.93;;;4.38;;
2544;SDS011;36212;48.838;9.142;2024-03-25T00:53:48;5.32;;;4.05;;
2544;SDS011;36212;48.838;9.142;2024-03-25T00:56:19;4.50;;;3.92;;
2544;SDS011;36212;48.838;9.142;2024-03-25T00:58:51;4.18;;;3.80;;
2544;SDS011;36212;48.838;9.142;2024-03-25T01:01:23;7.25;;;3.92;;
2544;SDS011;36212;48.838;9.142;2024-03-25T01:03:54;4.38;;;3.95;;
2544;SDS011;36212;48.838;9.142;2024-03-25T01:06:26;3.83;;;3.50;;
2544;SDS011;36212;48.838;9.142;2024-03-25T01:08:57;4.25;;;3.80;;
2544;SDS011;36212;48.838;9.142;2024-03-25T01:11:28;4.10;;;3.80;;
2544;SDS011;36212;48.838;9.142;2024-03-25T01:14:00;6.85;;;4.00;;
2544;SDS011;36212;48.838;9.142;2024-03-25T01:16:32;6.00;;;5.07;;
2544;SDS011;36212;48.838;9.142;2024-03-25T01:19:03;6.57;;;4.15;;
2544;SDS011;36212;48.838;9.142;2024-03-25T01:21:35;4.72;;;3.60;;
2544;SDS011;36212;48.838;9.142;2024-03-25T01:24:06;6.63;;;4.63;;
2544;SDS011;36212;48.838;9.142;2024-03-25T01:26:37;4.40;;;4.15;;
2544;SDS011;36212;48.838;9.142;2024-03-25T01:29:08;4.93;;;4.00;;
2544;SDS011;36212;48.838;9.142;2024-03-25T01:31:40;4.25;;;3.83;;
2544;SDS011;36212;48.838;9.142;2024-03-25T01:34:11;5.95;;;3.88;;
2544;SDS011;36212;48.838;9.142;2024-03-25T01:36:42;4.40;;;4.00;;
2544;SDS011;36212;48.838;9.142;2024-03-25T01:39:13;5.20;;;4.70;;
2544;SDS011;36212;48.838;9.142;2024-03-25T01:41:44;6.80;;;4.03;;
2544;SDS011;36212;48.838;9.142;2024-03-25T01:44:16;4.95;;;3.65;;
2544;SDS011;36212;48.838;9.142;2024-03-25T01:46:47;4.85;;;4.45;;
2544;SDS011;36212;48.838;9.142;2024-03-25T01:49:19;5.30;;;4.80;;
2544;SDS011;36212;48.838;9.142;2024-03-25T01:51:51;5.30;;;4.43;;
2544;SDS011;36212;48.838;9.142;2024-03-25T01:54:22;5.97;;;5.30;;
2544;SDS011;36212;48.838;9.142;2024-03-25T01:56:54;7.10;;;4.63;;
2544;SDS011;36212;48.838;9.142;2024-03-25T01:59:27;7.55;;;4.40;;
2544;SDS011;36212;48.838;9.142;2024-03-25T02:01:59;6.10;;;5.00;;
2544;SDS011;36212;48.838;9.142;2024-03-25T02:04:31;5.35;;;4.85;;
2544;SDS011;36212;48.838;9.142;2024-03-25T02:07:03;5.32;;;4.90;;
2544;SDS011;36212;48.838;9.142;2024-03-25T02:09:38;6.88;;;4.25;;
2544;SDS011;36212;48.838;9.142;2024-03-25T02:12:10;7.55;;;4.22;;
2544;SDS011;36212;48.838;9.142;2024-03-25T02:14:42;5.32;;;4.15;;
2544;SDS011;36212;48.838;9.142;2024-03-25T02:17:15;4.60;;;4.13;;
2544;SDS011;36212;48.838;9.142;2024-03-25T02:19:46;5.15;;;4.50;;
2544;SDS011;36212;48.838;9.142;2024-03-25T02:22:17;5.35;;;4.70;;
2544;SDS011;36212;48.838;9.142;2024-03-25T02:24:49;7.85;;;4.75;;
2544;SDS011;36212;48.838;9.142;2024-03-25T02:27:26;4.97;;;4.65;;
2544;SDS011;36212;48.838;9.142;2024-03-25T02:30:06;5.25;;;4.30;;
2544;SDS011;36212;48.838;9.142;2024-03-25T02:32:40;4.97;;;4.43;;
2544;SDS011;36212;48.838;9.142;2024-03-25T02:35:13;5.65;;;4.40;;
2544;SDS011;36212;48.838;9.142;2024-03-25T02:37:47;4.70;;;4.20;;
2544;SDS011;36212;48.838;9.142;2024-03-25T02:40:20;7.57;;;4.50;;
2544;SDS011;36212;48.838;9.142;2024-03-25T02:42:53;5.28;;;4.80;;
2544;SDS011;36212;48.838;9.142;2024-03-25T02:45:24;5.57;;;4.97;;
2544;SDS011;36212;48.838;9.142;2024-03-25T02:47:56;5.28;;;4.78;;
2544;SDS011;36212;48.838;9.142;2024-03-25T02:50:27;4.72;;;4.32;;
2544;SDS011;36212;48.838;9.142;2024-03-25T02:52:58;5.22;;;4.72;;
2544;SDS011;36212;48.838;9.142;2024-03-25T02:55:30;5.35;;;4.50;;
2544;SDS011;36212;48.838;9.142;2024-03-25T02:58:01;4.75;;;4.35;;
2544;SDS011;36212;48.838;9.142;2024-03-25T03:00:34;5.53;;;5.00;;
2544;SDS011;36212;48.838;9.142;2024-03-25T03:05:59;4.95;;;4.43;;
2544;SDS011;36212;48.838;9.142;2024-03-25T03:08:34;5.57;;;4.90;;
2544;SDS011;36212;48.838;9.142;2024-03-25T03:11:16;4.70;;;4.38;;
2544;SDS011;36212;48.838;9.142;2024-03-25T03:13:47;6.63;;;4.85;;
2544;SDS011;36212;48.838;9.142;2024-03-25T03:16:18;6.10;;;4.78;;
2544;SDS011;36212;48.838;9.142;2024-03-25T03:18:49;6.07;;;5.57;;
2544;SDS011;36212;48.838;9.142;2024-03-25T03:21:21;5.25;;;4.85;;
2544;SDS011;36212;48.838;9.142;2024-03-25T03:23:52;11.52;;;5.50;;
2544;SDS011;36212;48.838;9.142;2024-03-25T03:26:23;6.90;;;6.25;;
2544;SDS011;36212;48.838;9.142;2024-03-25T03:28:58;10.85;;;5.32;;
2544;SDS011;36212;48.838;9.142;2024-03-25T03:31:29;6.18;;;5.25;;
2544;SDS011;36212;48.838;9.142;2024-03-25T03:34:00;7.30;;;4.85;;
2544;SDS011;36212;48.838;9.142;2024-03-25T03:36:31;6.90;;;5.20;;
2544;SDS011;36212;48.838;9.142;2024-03-25T03:39:03;7.90;;;5.10;;
2544;SDS011;36212;48.838;9.142;2024-03-25T03:41:34;6.07;;;5.50;;
2544;SDS011;36212;48.838;9.142;2024-03-25T03:44:06;7.13;;;6.38;;
2544;SDS011;36212;48.838;9.142;2024-03-25T03:46:39;5.50;;;4.53;;
2544;SDS011;36212;48.838;9.142;2024-03-25T03:49:11;6.55;;;4.55;;
2544;SDS011;36212;48.838;9.142;2024-03-25T03:51:42;4.93;;;4.43;;
2544;SDS011;36212;48.838;9.142;2024-03-25T03:54:13;4.75;;;4.35;;
2544;SDS011;36212;48.838;9.142;2024-03-25T03:56:44;8.10;;;5.40;;
2544;SDS011;36212;48.838;9.142;2024-03-25T03:59:15;6.05;;;5.45;;
2544;SDS011;36212;48.838;9.142;2024-03-25T04:01:47;7.00;;;4.72;;
2544;SDS011;36212;48.838;9.142;2024-03-25T04:04:18;6.70;;;4.38;;
2544;SDS011;36212;48.838;9.142;2024-03-25T04:06:50;8.57;;;4.85;;
2544;SDS011;36212;48.838;9.142;2024-03-25T04:09:22;6.05;;;5.38;;
2544;SDS011;36212;48.838;9.142;2024-03-25T04:11:54;4.78;;;4.25;;
2544;SDS011;36212;48.838;9.142;2024-03-25T04:14:25;5.88;;;5.30;;
2544;SDS011;36212;48.838;9.142;2024-03-25T04:16:57;7.50;;;5.15;;
2544;SDS011;36212;48.838;9.142;2024-03-25T04:19:29;7.47;;;5.05;;
2544;SDS011;36212;48.838;9.142;2024-03-25T04:22:01;6.45;;;5.30;;
2544;SDS011;36212;48.838;9.142;2024-03-25T04:24:34;7.65;;;5.22;;
2544;SDS011;36212;48.838;9.142;2024-03-25T04:27:05;5.55;;;5.07;;
2544;SDS011;36212;48.838;9.142;2024-03-25T04:29:36;8.77;;;5.28;;
2544;SDS011;36212;48.838;9.142;2024-03-25T04:32:08;8.98;;;5.88;;
2544;SDS011;36212;48.838;9.142;2024-03-25T04:34:39;7.90;;;5.57;;
2544;SDS011;36212;48.838;9.142;2024-03-25T04:37:10;9.70;;;5.60;;
2544;SDS011;36212;48.838;9.142;2024-03-25T04:39:43;8.10;;;5.60;;
2544;SDS011;36212;48.838;9.142;2024-03-25T04:42:14;5.47;;;5.00;;
2544;SDS011;36212;48.838;9.142;2024-03-25T04:44:45;5.13;;;4.75;;
2544;SDS011;36212;48.838;9.142;2024-03-25T04:47:17;11.65;;;6.00;;
2544;SDS011;36212;48.838;9.142;2024-03-25T04:49:49;5.10;;;4.70;;
2544;SDS011;36212;48.838;9.142;2024-03-25T04:52:20;5.60;;;5.10;;
2544;SDS011;36212;48.838;9.142;2024-03-25T04:54:56;7.35;;;5.55;;
2544;SDS011;36212;48.838;9.142;2024-03-25T04:57:27;5.10;;;4.70;;
2544;SDS011;36212;48.838;9.142;2024-03-25T04:59:58;6.85;;;4.85;;
2544;SDS011;36212;48.838;9.142;2024-03-25T05:02:29;5.93;;;5.05;;
2544;SDS011;36212;48.838;9.142;2024-03-25T05:05:01;7.20;;;5.30;;
2544;SDS011;36212;48.838;9.142;2024-03-25T05:07:33;6.65;;;5.90;;
2544;SDS011;36212;48.838;9.142;2024-03-25T05:10:05;5.93;;;5.38;;
2544;SDS011;36212;48.838;9.142;2024-03-25T05:12:38;7.15;;;4.93;;
2544;SDS011;36212;48.838;9.142;2024-03-25T05:15:09;6.35;;;5.85;;
2544;SDS011;36212;48.838;9.142;2024-03-25T05:17:41;7.10;;;5.07;;
2544;SDS011;36212;48.838;9.142;2024-03-25T05:20:13;4.90;;;4.50;;
2544;SDS011;36212;48.838;9.142;2024-03-25T05:22:44;5.28;;;4.78;;
2544;SDS011;36212;48.838;9.142;2024-03-25T05:25:16;7.30;;;4.75;;
2544;SDS011;36212;48.838;9.142;2024-03-25T05:27:47;5.43;;;4.90;;
2544;SDS011;36212;48.838;9.142;2024-03-25T05:30:18;5.95;;;5.20;;
2544;SDS011;36212;48.838;9.142;2024-03-25T05:32:49;9.05;;;5.18;;
2544;SDS011;36212;48.838;9.142;2024-03-25T05:35:21;5.53;;;5.13;;
2544;SDS011;36212;48.838;9.142;2024-03-25T05:37:53;5.60;;;5.10;;
2544;SDS011;36212;48.838;9.142;2024-03-25T05:40:24;5.03;;;4.63;;
2544;SDS011;36212;48.838;9.142;2024-03-25T05:42:55;8.35;;;5.32;;
2544;SDS011;36212;48.838;9.142;2024-03-25T05:45:26;5.97;;;5.35;;
2544;SDS011;36212;48.838;9.142;2024-03-25T05:47:57;6.53;;;5.05;;
2544;SDS011;36212;48.838;9.142;2024-03-25T05:50:29;5.07;;;4.70;;
2544;SDS011;36212;48.838;9.142;2024-03-25T05:53:00;6.60;;;5.97;;
2544;SDS011;36212;48.838;9.142;2024-03-25T05:55:31;4.90;;;4.60;;
2544;SDS011;36212;48.838;9.142;2024-03-25T05:58:03;4.68;;;4.30;;
2544;SDS011;36212;48.838;9.142;2024-03-25T06:00:35;7.10;;;4.80;;
2544;SDS011;36212;48.838;9.142;2024-03-25T06:03:06;5.60;;;5.03;;
2544;SDS011;36212;48.838;9.142;2024-03-25T06:05:37;7.60;;;5.30;;
2544;SDS011;36212;48.838;9.142;2024-03-25T06:08:08;5.32;;;4.93;;
2544;SDS011;36212;48.838;9.142;2024-03-25T06:10:54;10.90;;;5.60;;
2544;SDS011;36212;48.838;9.142;2024-03-25T06:13:31;6.70;;;5.55;;
2544;SDS011;36212;48.838;9.142;2024-03-25T06:16:03;7.60;;;6.00;;
2544;SDS011;36212;48.838;9.142;2024-03-25T06:18:35;4.75;;;4.38;;
2544;SDS011;36212;48.838;9.142;2024-03-25T06:21:07;4.97;;;4.38;;
2544;SDS011;36212;48.838;9.142;2024-03-25T06:23:38;6.80;;;4.93;;
2544;SDS011;36212;48.838;9.142;2024-03-25T06:26:10;5.20;;;4.70;;
2544;SDS011;36212;48.838;9.142;2024-03-25T06:28:43;5.88;;;5.38;;
2544;SDS011;36212;48.838;9.142;2024-03-25T06:31:16;4.95;;;4.35;;
2544;SDS011;36212;48.838;9.142;2024-03-25T06:34:26;5.45;;;4.95;;
2544;SDS011;36212;48.838;9.142;2024-03-25T06:36:57;4.80;;;4.50;;
2544;SDS011;36212;48.838;9.142;2024-03-25T06:39:28;6.93;;;4.47;;
2544;SDS011;36212;48.838;9.142;2024-03-25T06:42:00;5.43;;;4.90;;
2544;SDS011;36212;48.838;9.142;2024-03-25T06:44:31;4.00;;;3.70;;
2544;SDS011;36212;48.838;9.142;2024-03-25T06:47:03;4.15;;;3.95;;
2544;SDS011;36212;48.838;9.142;2024-03-25T06:49:34;4.47;;;4.07;;
2544;SDS011;36212;48.838;9.142;2024-03-25T06:52:06;5.72;;;4.30;;
2544;SDS011;36212;48.838;9.142;2024-03-25T06:54:37;5.95;;;4.43;;
2544;SDS011;36212;48.838;9.142;2024-03-25T06:57:08;4.55;;;4.15;;
2544;SDS011;36212;48.838;9.142;2024-03-25T06:59:40;4.20;;;3.90;;
2544;SDS011;36212;48.838;9.142;2024-03-25T07:02:12;4.85;;;4.35;;
2544;SDS011;36212;48.838;9.142;2024-03-25T07:04:44;4.95;;;4.10;;
2544;SDS011;36212;48.838;9.142;2024-03-25T07:07:16;4.28;;;3.97;;
2544;SDS011;36212;48.838;9.142;2024-03-25T07:09:48;4.15;;;3.50;;
2544;SDS011;36212;48.838;9.142;2024-03-25T07:12:19;4.10;;;3.80;;
2544;SDS011;36212;48.838;9.142;2024-03-25T07:14:51;5.05;;;4.65;;
2544;SDS011;36212;48.838;9.142;2024-03-25T07:17:22;4.93;;;4.47;;
2544;SDS011;36212;48.838;9.142;2024-03-25T07:19:56;4.50;;;4.20;;
2544;SDS011;36212;48.838;9.142;2024-03-25T07:22:27;4.43;;;4.13;;
2544;SDS011;36212;48.838;9.142;2024-03-25T07:24:59;4.55;;;4.25;;
2544;SDS011;36212;48.838;9.142;2024-03-25T07:27:31;6.43;;;4.00;;
2544;SDS011;36212;48.838;9.142;2024-03-25T07:30:02;4.63;;;4.10;;
2544;SDS011;36212;48.838;9.142;2024-03-25T07:32:37;4.43;;;4.03;;
2544;SDS011;36212;48.838;9.142;2024-03-25T07:35:08;4.15;;;3.85;;
2544;SDS011;36212;48.838;9.142;2024-03-25T07:37:40;4.68;;;4.05;;
2544;SDS011;36212;48.838;9.142;2024-03-25T07:40:11;4.80;;;4.40;;
2544;SDS011;36212;48.838;9.142;2024-03-25T07:42:43;5.15;;;3.85;;
2544;SDS011;36212;48.838;9.142;2024-03-25T07:45:17;3.85;;;3.55;;
2544;SDS011;36212;48.838;9.142;2024-03-25T07:47:49;4.80;;;4.30;;
2544;SDS011;36212;48.838;9.142;2024-03-25T07:50:20;4.90;;;4.28;;
2544;SDS011;36212;48.838;9.142;2024-03-25T07:52:52;3.95;;;3.58;;
2544;SDS011;36212;48.838;9.142;2024-03-25T07:55:23;5.78;;;4.40;;
2544;SDS011;36212;48.838;9.142;2024-03-25T07:57:54;6.55;;;4.88;;
2544;SDS011;36212;48.838;9.142;2024-03-25T08:00:26;5.00;;;4.50;;
2544;SDS011;36212;48.838;9.142;2024-03-25T08:02:57;5.15;;;3.97;;
2544;SDS011;36212;48.838;9.142;2024-03-25T08:05:29;4.20;;;3.80;;
2544;SDS011;36212;48.838;9.142;2024-03-25T08:08:01;4.18;;;3.78;;
2544;SDS011;36212;48.838;9.142;2024-03-25T08:10:33;4.13;;;3.63;;
2544;SDS011;36212;48.838;9.142;2024-03-25T08:13:06;4.55;;;4.15;;
2544;SDS011;36212;48.838;9.142;2024-03-25T08:15:38;4.40;;;4.00;;
2544;SDS011;36212;48.838;9.142;2024-03-25T08:18:09;5.93;;;4.05;;
2544;SDS011;36212;48.838;9.142;2024-03-25T08:20:41;4.18;;;3.80;;
2544;SDS011;36212;48.838;9.142;2024-03-25T08:23:12;5.63;;;4.10;;
2544;SDS011;36212;48.838;9.142;2024-03-25T08:25:44;3.80;;;3.50;;
2544;SDS011;36212;48.838;9.142;2024-03-25T08:28:15;4.53;;;3.67;;
2544;SDS011;36212;48.838;9.142;2024-03-25T08:30:46;6.15;;;4.25;;
2544;SDS011;36212;48.838;9.142;2024-03-25T08:33:18;3.85;;;2.88;;
2544;SDS011;36212;48.838;9.142;2024-03-25T08:35:49;3.72;;;3.42;;
2544;SDS011;36212;48.838;9.142;2024-03-25T08:38:23;4.60;;;2.90;;
2544;SDS011;36212;48.838;9.142;2024-03-25T08:40:54;3.10;;;2.90;;
2544;SDS011;36212;48.838;9.142;2024-03-25T08:43:27;4.78;;;3.03;;
2544;SDS011;36212;48.838;9.142;2024-03-25T08:45:59;4.00;;;3.40;;
2544;SDS011;36212;48.838;9.142;2024-03-25T08:48:30;3.90;;;3.28;;
2544;SDS011;36212;48.838;9.142;2024-03-25T08:51:02;4.65;;;4.20;;
2544;SDS011;36212;48.838;9.142;2024-03-25T08:53:34;4.18;;;3.50;;
2544;SDS011;36212;48.838;9.142;2024-03-25T08:56:05;3.67;;;3.22;;
2544;SDS011;36212;48.838;9.142;2024-03-25T08:58:37;3.42;;;3.13;;
2544;SDS011;36212;48.838;9.142;2024-03-25T09:01:08;3.33;;;3.03;;
2544;SDS011;36212;48.838;9.142;2024-03-25T09:03:44;4.32;;;3.83;;
2544;SDS011;36212;48.838;9.142;2024-03-25T09:06:17;3.58;;;3.22;;
2544;SDS011;36212;48.838;9.142;2024-03-25T09:08:48;4.63;;;3.35;;
2544;SDS011;36212;48.838;9.142;2024-03-25T09:11:58;4.35;;;3.38;;
2544;SDS011;36212;48.838;9.142;2024-03-25T09:14:29;3.72;;;3.28;;
2544;SDS011;36212;48.838;9.142;2024-03-25T09:17:04;5.43;;;3.22;;
2544;SDS011;36212;48.838;9.142;2024-03-25T09:19:36;4.10;;;3.13;;
2544;SDS011;36212;48.838;9.142;2024-03-25T09:22:07;3.42;;;3.22;;
2544;SDS011;36212;48.838;9.142;2024-03-25T09:24:39;5.47;;;3.20;;
2544;SDS011;36212;48.838;9.142;2024-03-25T09:27:10;3.60;;;3.40;;
2544;SDS011;36212;48.838;9.142;2024-03-25T09:29:42;3.00;;;2.80;;
2544;SDS011;36212;48.838;9.142;2024-03-25T09:32:13;3.13;;;2.92;;
2544;SDS011;36212;48.838;9.142;2024-03-25T09:34:45;2.90;;;2.67;;
2544;SDS011;36212;48.838;9.142;2024-03-25T09:37:20;3.00;;;2.80;;
2544;SDS011;36212;48.838;9.142;2024-03-25T09:39:52;3.35;;;2.42;;
2544;SDS011;36212;48.838;9.142;2024-03-25T09:42:28;3.00;;;2.80;;
2544;SDS011;36212;48.838;9.142;2024-03-25T09:45:18;3.05;;;2.85;;
2544;SDS011;36212;48.838;9.142;2024-03-25T09:47:54;2.97;;;2.67;;
2544;SDS011;36212;48.838;9.142;2024-03-25T09:50:26;4.07;;;2.92;;
2544;SDS011;36212;48.838;9.142;2024-03-25T09:52:58;3.25;;;2.95;;
2544;SDS011;36212;48.838;9.142;2024-03-25T09:55:30;3.10;;;2.90;;
2544;SDS011;36212;48.838;9.142;2024-03-25T09:58:02;3.45;;;3.00;;
2544;SDS011;36212;48.838;9.142;2024-03-25T10:00:36;3.65;;;2.90;;
2544;SDS011;36212;48.838;9.142;2024-03-25T10:03:08;3.03;;;2.83;;
2544;SDS011;36212;48.838;9.142;2024-03-25T10:05:40;3.10;;;2.90;;
2544;SDS011;36212;48.838;9.142;2024-03-25T10:08:12;3.58;;;2.92;;
2544;SDS011;36212;48.838;9.142;2024-03-25T10:10:50;3.25;;;3.05;;
2544;SDS011;36212;48.838;9.142;2024-03-25T10:13:26;3.00;;;2.80;;
2544;SDS011;36212;48.838;9.142;2024-03-25T10:15:58;2.72;;;2.50;;
2544;SDS011;36212;48.838;9.142;2024-03-25T10:18:30;3.47;;;3.17;;
2544;SDS011;36212;48.838;9.142;2024-03-25T10:21:02;3.60;;;3.28;;
2544;SDS011;36212;48.838;9.142;2024-03-25T10:23:40;3.20;;;2.90;;
2544;SDS011;36212;48.838;9.142;2024-03-25T10:26:30;4.90;;;3.10;;
2544;SDS011;36212;48.838;9.142;2024-03-25T10:29:03;4.15;;;3.10;;
2544;SDS011;36212;48.838;9.142;2024-03-25T10:31:37;6.03;;;3.08;;
2544;SDS011;36212;48.838;9.142;2024-03-25T10:34:08;4.30;;;3.10;;
2544;SDS011;36212;48.838;9.142;2024-03-25T10:36:39;3.20;;;2.90;;
2544;SDS011;36212;48.838;9.142;2024-03-25T10:39:11;3.10;;;2.90;;
2544;SDS011;36212;48.838;9.142;2024-03-25T10:41:47;2.83;;;2.63;;
2544;SDS011;36212;48.838;9.142;2024-03-25T10:44:20;6.78;;;2.80;;
2544;SDS011;36212;48.838;9.142;2024-03-25T10:46:55;3.78;;;3.30;;
2544;SDS011;36212;48.838;9.142;2024-03-25T10:52:19;3.90;;;3.60;;
2544;SDS011;36212;48.838;9.142;2024-03-25T10:54:54;3.03;;;2.83;;
2544;SDS011;36212;48.838;9.142;2024-03-25T10:57:27;3.55;;;3.25;;
2544;SDS011;36212;48.838;9.142;2024-03-25T11:00:00;3.30;;;3.10;;
2544;SDS011;36212;48.838;9.142;2024-03-25T11:02:35;3.92;;;3.70;;
2544;SDS011;36212;48.838;9.142;2024-03-25T11:05:07;3.35;;;3.15;;
2544;SDS011;36212;48.838;9.142;2024-03-25T11:07:41;4.00;;;3.80;;
2544;SDS011;36212;48.838;9.142;2024-03-25T11:10:14;3.45;;;3.25;;
2544;SDS011;36212;48.838;9.142;2024-03-25T11:12:46;5.28;;;4.35;;
2544;SDS011;36212;48.838;9.142;2024-03-25T11:15:20;3.58;;;3.30;;
2544;SDS011;36212;48.838;9.142;2024-03-25T11:17:52;3.60;;;3.38;;
2544;SDS011;36212;48.838;9.142;2024-03-25T11:20:28;3.78;;;3.58;;
2544;SDS011;36212;48.838;9.142;2024-03-25T11:23:07;6.55;;;3.20;;
2544;SDS011;36212;48.838;9.142;2024-03-25T11:25:43;5.25;;;4.20;;
2544;SDS011;36212;48.838;9.142;2024-03-25T11:28:27;3.97;;;3.70;;
2544;SDS011;36212;48.838;9.142;2024-03-25T11:30:59;3.60;;;3.40;;
2544;SDS011;36212;48.838;9.142;2024-03-25T11:33:31;3.63;;;3.40;;
2544;SDS011;36212;48.838;9.142;2024-03-25T11:36:07;4.05;;;3.75;;
2544;SDS011;36212;48.838;9.142;2024-03-25T11:38:40;3.88;;;3.60;;
2544;SDS011;36212;48.838;9.142;2024-03-25T11:41:15;3.90;;;3.50;;
2544;SDS011;36212;48.838;9.142;2024-03-25T11:43:47;3.47;;;3.28;;
2544;SDS011;36212;48.838;9.142;2024-03-25T11:46:19;3.63;;;3.33;;
2544;SDS011;36212;48.838;9.142;2024-03-25T11:48:54;3.38;;;3.17;;
2544;SDS011;36212;48.838;9.142;2024-03-25T11:51:26;3.92;;;3.50;;
2544;SDS011;36212;48.838;9.142;2024-03-25T11:53:58;3.75;;;3.40;;
2544;SDS011;36212;48.838;9.142;2024-03-25T11:56:33;4.65;;;3.50;;
2544;SDS011;36212;48.838;9.142;2024-03-25T11:59:06;3.42;;;3.22;;
2544;SDS011;36212;48.838;9.142;2024-03-25T12:01:39;3.90;;;3.50;;
2544;SDS011;36212;48.838;9.142;2024-03-25T12:04:11;3.28;;;3.10;;
2544;SDS011;36212;48.838;9.142;2024-03-25T12:06:54;4.00;;;3.63;;
2544;SDS011;36212;48.838;9.142;2024-03-25T12:09:27;3.58;;;3.28;;
2544;SDS011;36212;48.838;9.142;2024-03-25T12:12:38;3.75;;;3.45;;
2544;SDS011;36212;48.838;9.142;2024-03-25T12:15:11;4.30;;;3.92;;
2544;SDS011;36212;48.838;9.142;2024-03-25T12:17:43;3.47;;;3.25;;
2544;SDS011;36212;48.838;9.142;2024-03-25T12:20:15;3.85;;;3.47;;
2544;SDS011;36212;48.838;9.142;2024-03-25T12:22:50;4.07;;;3.70;;
2544;SDS011;36212;48.838;9.142;2024-03-25T12:25:21;3.55;;;3.35;;
2544;SDS011;36212;48.838;9.142;2024-03-25T12:27:53;4.10;;;3.80;;
2544;SDS011;36212;48.838;9.142;2024-03-25T12:30:24;5.43;;;3.53;;
2544;SDS011;36212;48.838;9.142;2024-03-25T12:32:56;3.65;;;3.42;;
2544;SDS011;36212;48.838;9.142;2024-03-25T12:35:30;4.28;;;3.75;;
2544;SDS011;36212;48.838;9.142;2024-03-25T12:38:06;3.90;;;3.60;;
2544;SDS011;36212;48.838;9.142;2024-03-25T12:40:37;4.20;;;3.90;;
2544;SDS011;36212;48.838;9.142;2024-03-25T12:43:13;4.18;;;3.47;;
2544;SDS011;36212;48.838;9.142;2024-03-25T12:45:46;3.80;;;3.60;;
2544;SDS011;36212;48.838;9.142;2024-03-25T12:48:18;4.50;;;4.10;;
2544;SDS011;36212;48.838;9.142;2024-03-25T12:50:51;3.70;;;3.50;;
2544;SDS011;36212;48.838;9.142;2024-03-25T12:53:24;4.80;;;4.30;;
2544;SDS011;36212;48.838;9.142;2024-03-25T12:55:57;3.80;;;3.50;;
2544;SDS011;36212;48.838;9.142;2024-03-25T12:58:28;4.40;;;4.10;;
2544;SDS011;36212;48.838;9.142;2024-03-25T13:01:00;4.47;;;4.07;;
2544;SDS011;36212;48.838;9.142;2024-03-25T13:03:32;4.30;;;3.90;;
2544;SDS011;36212;48.838;9.142;2024-03-25T13:06:03;4.30;;;4.00;;
2544;SDS011;36212;48.838;9.142;2024-03-25T13:08:35;3.58;;;3.38;;
2544;SDS011;36212;48.838;9.142;2024-03-25T13:11:07;3.93;;;3.70;;
2544;SDS011;36212;48.838;9.142;2024-03-25T13:13:39;3.90;;;3.57;;
2544;SDS011;36212;48.838;9.142;2024-03-25T13:16:10;4.20;;;3.87;;
2544;SDS011;36212;48.838;9.142;2024-03-25T13:18:42;4.45;;;4.05;;
2544;SDS011;36212;48.838;9.142;2024-03-25T13:21:14;5.25;;;4.13;;
2544;SDS011;36212;48.838;9.142;2024-03-25T13:23:45;4.80;;;4.45;;
2544;SDS011;36212;48.838;9.142;2024-03-25T13:26:16;4.55;;;4.20;;
2544;SDS011;36212;48.838;9.142;2024-03-25T13:28:48;5.45;;;4.50;;
2544;SDS011;36212;48.838;9.142;2024-03-25T13:31:19;4.03;;;3.72;;
2544;SDS011;36212;48.838;9.142;2024-03-25T13:33:51;4.13;;;3.83;;
2544;SDS011;36212;48.838;9.142;2024-03-25T13:36:23;4.30;;;3.90;;
2544;SDS011;36212;48.838;9.142;2024-03-25T13:38:54;4.20;;;3.90;;
2544;SDS011;36212;48.838;9.142;2024-03-25T13:41:25;3.70;;;3.50;;
2544;SDS011;36212;48.838;9.142;2024-03-25T13:43:57;3.50;;;3.40;;
2544;SDS011;36212;48.838;9.142;2024-03-25T13:46:29;3.90;;;3.60;;
2544;SDS011;36212;48.838;9.142;2024-03-25T13:49:00;3.80;;;3.43;;
2544;SDS011;36212;48.838;9.142;2024-03-25T13:51:32;4.10;;;3.80;;
2544;SDS011;36212;48.838;9.142;2024-03-25T13:54:03;3.30;;;3.00;;
2544;SDS011;36212;48.838;9.142;2024-03-25T13:56:35;4.10;;;3.80;;
2544;SDS011;36212;48.838;9.142;2024-03-25T13:59:06;4.50;;;4.10;;
2544;SDS011;36212;48.838;9.142;2024-03-25T14:01:38;3.60;;;3.40;;
2544;SDS011;36212;48.838;9.142;2024-03-25T14:04:11;4.65;;;4.10;;
2544;SDS011;36212;48.838;9.142;2024-03-25T14:06:43;4.63;;;4.30;;
2544;SDS011;36212;48.838;9.142;2024-03-25T14:09:23;4.10;;;3.90;;
2544;SDS011;36212;48.838;9.142;2024-03-25T14:11:58;3.92;;;3.72;;
2544;SDS011;36212;48.838;9.142;2024-03-25T14:14:29;3.60;;;3.40;;
2544;SDS011;36212;48.838;9.142;2024-03-25T14:17:01;3.70;;;3.40;;
2544;SDS011;36212;48.838;9.142;2024-03-25T14:19:32;4.20;;;3.78;;
2544;SDS011;36212;48.838;9.142;2024-03-25T14:22:04;3.85;;;3.50;;
2544;SDS011;36212;48.838;9.142;2024-03-25T14:24:35;4.00;;;3.70;;
2544;SDS011;36212;48.838;9.142;2024-03-25T14:27:06;3.90;;;3.70;;
2544;SDS011;36212;48.838;9.142;2024-03-25T14:29:38;4.10;;;3.90;;
2544;SDS011;36212;48.838;9.142;2024-03-25T14:32:10;3.50;;;3.20;;
2544;SDS011;36212;48.838;9.142;2024-03-25T14:34:41;3.93;;;3.60;;
2544;SDS011;36212;48.838;9.142;2024-03-25T14:37:13;4.30;;;4.00;;
2544;SDS011;36212;48.838;9.142;2024-03-25T14:39:45;5.67;;;4.23;;
2544;SDS011;36212;48.838;9.142;2024-03-25T14:42:16;3.97;;;3.67;;
2544;SDS011;36212;48.838;9.142;2024-03-25T14:44:48;3.58;;;3.28;;
2544;SDS011;36212;48.838;9.142;2024-03-25T14:47:20;3.70;;;3.50;;
2544;SDS011;36212;48.838;9.142;2024-03-25T14:49:52;4.10;;;3.60;;
2544;SDS011;36212;48.838;9.142;2024-03-25T14:52:23;4.37;;;3.97;;
2544;SDS011;36212;48.838;9.142;2024-03-25T14:54:55;3.95;;;3.70;;
2544;SDS011;36212;48.838;9.142;2024-03-25T14:57:26;3.60;;;3.40;;
2544;SDS011;36212;48.838;9.142;2024-03-25T14:59:58;4.47;;;3.45;;
2544;SDS011;36212;48.838;9.142;2024-03-25T15:02:29;4.20;;;3.90;;
2544;SDS011;36212;48.838;9.142;2024-03-25T15:05:01;3.42;;;3.13;;
2544;SDS011;36212;48.838;9.142;2024-03-25T15:07:35;3.60;;;3.40;;
2544;SDS011;36212;48.838;9.142;2024-03-25T15:10:07;3.80;;;3.58;;
2544;SDS011;36212;48.838;9.142;2024-03-25T15:12:39;3.95;;;3.75;;
2544;SDS011;36212;48.838;9.142;2024-03-25T15:15:10;3.80;;;3.60;;
2544;SDS011;36212;48.838;9.142;2024-03-25T15:17:42;3.80;;;3.60;;
2544;SDS011;36212;48.838;9.142;2024-03-25T15:20:14;3.90;;;3.60;;
2544;SDS011;36212;48.838;9.142;2024-03-25T15:22:46;4.35;;;3.97;;
2544;SDS011;36212;48.838;9.142;2024-03-25T15:25:18;4.45;;;4.03;;
2544;SDS011;36212;48.838;9.142;2024-03-25T15:27:50;4.22;;;3.92;;
2544;SDS011;36212;48.838;9.142;2024-03-25T15:30:21;4.75;;;4.35;;
2544;SDS011;36212;48.838;9.142;2024-03-25T15:32:53;4.60;;;4.30;;
2544;SDS011;36212;48.838;9.142;2024-03-25T15:35:27;4.35;;;4.07;;
2544;SDS011;36212;48.838;9.142;2024-03-25T15:37:58;3.78;;;3.55;;